Back to Top

Language: 

My Weather Underground Personal Weather Station Historical Data with Graphs...

Delerius Weather Station Historical Data
Daily Summary for April 12, 2017 Units:  Both    English   Metric
« Previous Day
Next Day »
Daily Weekly Monthly Yearly Custom
  High: Low: Average:
Temperature: 56.7 °F /  13.7 °C 44.8 °F /  7.1 °C 50.2 °F /  10.1 °C
Dew Point: 48.0 °F /  8.9 °C 38.4 °F /  3.6 °C 42.6 °F /  5.9 °C
Humidity: 85 % 58 % 76 %
Wind Speed: 19.0 mph /  30.6 km/h - 14.6 mph /  23.5 km/h
Wind Gust: 34.0 mph /  54.7 km/h - -
Wind:- - WNW
Pressure: 30.12 in /  1019.9 hPa 29.93 in /  1013.4 hPa -
Precipitation: 0.00 in /  0 mm    
Historical Graphs
 
 
Tabular Data for April 12, 2017
Time Temperature Dew Point Pressure Wind Wind Speed Wind Gust Humidity Rainfall Rate (Hourly) solar Conditions
00:03 49.3 °F /  9.6 °C 42.7 °F /  5.9 °C 30.12 in /  1019.9 hPa WSW 9.0 mph /  14.5 km/h 25.0 mph /  40.2 km/h 78 % 0.00 in /  0 mm 0 W/m2
00:08 49.3 °F /  9.6 °C 42.7 °F /  5.9 °C 30.11 in /  1019.5 hPa WSW 7.0 mph /  11.3 km/h 25.0 mph /  40.2 km/h 78 % 0.00 in /  0 mm 0 W/m2
00:13 49.3 °F /  9.6 °C 43.0 °F /  6.1 °C 30.11 in /  1019.5 hPa West 8.0 mph /  12.9 km/h 19.0 mph /  30.6 km/h 79 % 0.00 in /  0 mm 0 W/m2
00:18 49.3 °F /  9.6 °C 43.0 °F /  6.1 °C 30.11 in /  1019.5 hPa West 11.0 mph /  17.7 km/h 23.0 mph /  37 km/h 79 % 0.00 in /  0 mm 0 W/m2
00:23 49.3 °F /  9.6 °C 43.0 °F /  6.1 °C 30.11 in /  1019.5 hPa West 12.0 mph /  19.3 km/h 24.0 mph /  38.6 km/h 79 % 0.00 in /  0 mm 0 W/m2
00:28 49.3 °F /  9.6 °C 43.0 °F /  6.1 °C 30.11 in /  1019.5 hPa West 11.0 mph /  17.7 km/h 24.0 mph /  38.6 km/h 79 % 0.00 in /  0 mm 0 W/m2
00:33 49.3 °F /  9.6 °C 43.0 °F /  6.1 °C 30.10 in /  1019.2 hPa West 11.0 mph /  17.7 km/h 22.0 mph /  35.4 km/h 79 % 0.00 in /  0 mm 0 W/m2
00:38 49.3 °F /  9.6 °C 43.0 °F /  6.1 °C 30.10 in /  1019.2 hPa West 12.0 mph /  19.3 km/h 23.0 mph /  37 km/h 79 % 0.00 in /  0 mm 0 W/m2
00:43 49.3 °F /  9.6 °C 43.0 °F /  6.1 °C 30.10 in /  1019.2 hPa West 12.0 mph /  19.3 km/h 23.0 mph /  37 km/h 79 % 0.00 in /  0 mm 0 W/m2
00:48 49.3 °F /  9.6 °C 43.0 °F /  6.1 °C 30.10 in /  1019.2 hPa West 11.0 mph /  17.7 km/h 22.0 mph /  35.4 km/h 79 % 0.00 in /  0 mm 0 W/m2
00:53 49.3 °F /  9.6 °C 43.0 °F /  6.1 °C 30.10 in /  1019.2 hPa West 12.0 mph /  19.3 km/h 25.0 mph /  40.2 km/h 79 % 0.00 in /  0 mm 0 W/m2
00:58 49.3 °F /  9.6 °C 43.0 °F /  6.1 °C 30.09 in /  1018.8 hPa West 15.0 mph /  24.1 km/h 28.0 mph /  45.1 km/h 79 % 0.00 in /  0 mm 0 W/m2
01:03 49.3 °F /  9.6 °C 43.0 °F /  6.1 °C 30.09 in /  1018.8 hPa West 13.0 mph /  20.9 km/h 28.0 mph /  45.1 km/h 79 % 0.00 in /  0 mm 0 W/m2
01:08 49.3 °F /  9.6 °C 43.0 °F /  6.1 °C 30.09 in /  1018.8 hPa West 12.0 mph /  19.3 km/h 21.0 mph /  33.8 km/h 79 % 0.00 in /  0 mm 0 W/m2
01:13 49.3 °F /  9.6 °C 43.0 °F /  6.1 °C 30.09 in /  1018.8 hPa West 12.0 mph /  19.3 km/h 26.0 mph /  41.8 km/h 79 % 0.00 in /  0 mm 0 W/m2
01:18 49.3 °F /  9.6 °C 43.0 °F /  6.1 °C 30.08 in /  1018.5 hPa West 14.0 mph /  22.5 km/h 26.0 mph /  41.8 km/h 79 % 0.00 in /  0 mm 0 W/m2
01:23 49.1 °F /  9.5 °C 42.9 °F /  6.1 °C 30.08 in /  1018.5 hPa West 15.0 mph /  24.1 km/h 27.0 mph /  43.5 km/h 79 % 0.00 in /  0 mm 0 W/m2
01:28 49.1 °F /  9.5 °C 42.9 °F /  6.1 °C 30.08 in /  1018.5 hPa West 15.0 mph /  24.1 km/h 27.0 mph /  43.5 km/h 79 % 0.00 in /  0 mm 0 W/m2
01:33 49.1 °F /  9.5 °C 42.9 °F /  6.1 °C 30.08 in /  1018.5 hPa West 15.0 mph /  24.1 km/h 29.0 mph /  46.7 km/h 79 % 0.00 in /  0 mm 0 W/m2
01:38 49.1 °F /  9.5 °C 42.9 °F /  6.1 °C 30.08 in /  1018.5 hPa West 15.0 mph /  24.1 km/h 29.0 mph /  46.7 km/h 79 % 0.00 in /  0 mm 0 W/m2
01:43 49.1 °F /  9.5 °C 42.9 °F /  6.1 °C 30.07 in /  1018.2 hPa West 16.0 mph /  25.7 km/h 29.0 mph /  46.7 km/h 79 % 0.00 in /  0 mm 0 W/m2
01:48 49.1 °F /  9.5 °C 42.9 °F /  6.1 °C 30.07 in /  1018.2 hPa West 17.0 mph /  27.4 km/h 30.0 mph /  48.3 km/h 79 % 0.00 in /  0 mm 0 W/m2
01:53 49.1 °F /  9.5 °C 42.9 °F /  6.1 °C 30.08 in /  1018.5 hPa West 15.0 mph /  24.1 km/h 32.0 mph /  51.5 km/h 79 % 0.00 in /  0 mm 0 W/m2
01:58 49.1 °F /  9.5 °C 42.9 °F /  6.1 °C 30.08 in /  1018.5 hPa West 15.0 mph /  24.1 km/h 32.0 mph /  51.5 km/h 79 % 0.00 in /  0 mm 0 W/m2
02:03 48.9 °F /  9.4 °C 42.7 °F /  5.9 °C 30.08 in /  1018.5 hPa West 18.0 mph /  29 km/h 29.0 mph /  46.7 km/h 79 % 0.00 in /  0 mm 0 W/m2
02:08 48.9 °F /  9.4 °C 42.7 °F /  5.9 °C 30.08 in /  1018.5 hPa West 18.0 mph /  29 km/h 30.0 mph /  48.3 km/h 79 % 0.00 in /  0 mm 0 W/m2
02:13 48.9 °F /  9.4 °C 42.7 °F /  5.9 °C 30.07 in /  1018.2 hPa West 15.0 mph /  24.1 km/h 30.0 mph /  48.3 km/h 79 % 0.00 in /  0 mm 0 W/m2
02:18 48.9 °F /  9.4 °C 42.7 °F /  5.9 °C 30.07 in /  1018.2 hPa West 14.0 mph /  22.5 km/h 25.0 mph /  40.2 km/h 79 % 0.00 in /  0 mm 0 W/m2
02:23 48.7 °F /  9.3 °C 42.5 °F /  5.8 °C 30.07 in /  1018.2 hPa West 15.0 mph /  24.1 km/h 28.0 mph /  45.1 km/h 79 % 0.00 in /  0 mm 0 W/m2
02:28 48.7 °F /  9.3 °C 42.5 °F /  5.8 °C 30.06 in /  1017.8 hPa West 17.0 mph /  27.4 km/h 29.0 mph /  46.7 km/h 79 % 0.00 in /  0 mm 0 W/m2
02:33 48.7 °F /  9.3 °C 42.5 °F /  5.8 °C 30.07 in /  1018.2 hPa West 18.0 mph /  29 km/h 30.0 mph /  48.3 km/h 79 % 0.00 in /  0 mm 0 W/m2
02:38 48.6 °F /  9.2 °C 42.3 °F /  5.7 °C 30.06 in /  1017.8 hPa West 16.0 mph /  25.7 km/h 30.0 mph /  48.3 km/h 79 % 0.00 in /  0 mm 0 W/m2
02:40 48.6 °F /  9.2 °C 42.3 °F /  5.7 °C 30.06 in /  1017.8 hPa West 16.0 mph /  25.7 km/h 30.0 mph /  48.3 km/h 79 % 0.00 in /  0 mm 0 W/m2
02:45 48.6 °F /  9.2 °C 42.3 °F /  5.7 °C 30.06 in /  1017.8 hPa West 15.0 mph /  24.1 km/h 26.0 mph /  41.8 km/h 79 % 0.00 in /  0 mm 0 W/m2
02:50 48.6 °F /  9.2 °C 42.3 °F /  5.7 °C 30.06 in /  1017.8 hPa West 17.0 mph /  27.4 km/h 31.0 mph /  49.9 km/h 79 % 0.00 in /  0 mm 0 W/m2
02:55 48.4 °F /  9.1 °C 42.2 °F /  5.7 °C 30.06 in /  1017.8 hPa West 17.0 mph /  27.4 km/h 31.0 mph /  49.9 km/h 79 % 0.00 in /  0 mm 0 W/m2
03:00 48.4 °F /  9.1 °C 41.8 °F /  5.4 °C 30.06 in /  1017.8 hPa West 17.0 mph /  27.4 km/h 30.0 mph /  48.3 km/h 78 % 0.00 in /  0 mm 0 W/m2
03:05 48.4 °F /  9.1 °C 41.8 °F /  5.4 °C 30.06 in /  1017.8 hPa West 17.0 mph /  27.4 km/h 27.0 mph /  43.5 km/h 78 % 0.00 in /  0 mm 0 W/m2
03:10 48.4 °F /  9.1 °C 41.8 °F /  5.4 °C 30.06 in /  1017.8 hPa West 17.0 mph /  27.4 km/h 27.0 mph /  43.5 km/h 78 % 0.00 in /  0 mm 0 W/m2
03:15 48.4 °F /  9.1 °C 41.8 °F /  5.4 °C 30.06 in /  1017.8 hPa West 16.0 mph /  25.7 km/h 26.0 mph /  41.8 km/h 78 % 0.00 in /  0 mm 0 W/m2
03:20 48.4 °F /  9.1 °C 42.2 °F /  5.7 °C 30.06 in /  1017.8 hPa West 16.0 mph /  25.7 km/h 25.0 mph /  40.2 km/h 79 % 0.00 in /  0 mm 0 W/m2
03:25 48.2 °F /  9 °C 42.0 °F /  5.6 °C 30.06 in /  1017.8 hPa West 15.0 mph /  24.1 km/h 25.0 mph /  40.2 km/h 79 % 0.00 in /  0 mm 0 W/m2
03:30 48.2 °F /  9 °C 42.0 °F /  5.6 °C 30.05 in /  1017.5 hPa WNW 14.0 mph /  22.5 km/h 24.0 mph /  38.6 km/h 79 % 0.00 in /  0 mm 0 W/m2
03:35 48.0 °F /  8.9 °C 42.1 °F /  5.6 °C 30.05 in /  1017.5 hPa WNW 15.0 mph /  24.1 km/h 24.0 mph /  38.6 km/h 80 % 0.00 in /  0 mm 0 W/m2
03:40 48.0 °F /  8.9 °C 42.1 °F /  5.6 °C 30.05 in /  1017.5 hPa West 16.0 mph /  25.7 km/h 27.0 mph /  43.5 km/h 80 % 0.00 in /  0 mm 0 W/m2
03:46 48.0 °F /  8.9 °C 42.1 °F /  5.6 °C 30.05 in /  1017.5 hPa West 16.0 mph /  25.7 km/h 27.0 mph /  43.5 km/h 80 % 0.00 in /  0 mm 0 W/m2
03:51 48.2 °F /  9 °C 42.3 °F /  5.7 °C 30.06 in /  1017.8 hPa WNW 16.0 mph /  25.7 km/h 25.0 mph /  40.2 km/h 80 % 0.00 in /  0 mm 0 W/m2
03:56 48.0 °F /  8.9 °C 42.1 °F /  5.6 °C 30.05 in /  1017.5 hPa WNW 17.0 mph /  27.4 km/h 27.0 mph /  43.5 km/h 80 % 0.00 in /  0 mm 0 W/m2
04:01 48.2 °F /  9 °C 42.0 °F /  5.6 °C 30.05 in /  1017.5 hPa WNW 18.0 mph /  29 km/h 29.0 mph /  46.7 km/h 79 % 0.00 in /  0 mm 0 W/m2
04:06 48.2 °F /  9 °C 41.7 °F /  5.4 °C 30.05 in /  1017.5 hPa WNW 18.0 mph /  29 km/h 29.0 mph /  46.7 km/h 78 % 0.00 in /  0 mm 0 W/m2
04:11 48.2 °F /  9 °C 41.7 °F /  5.4 °C 30.05 in /  1017.5 hPa WNW 17.0 mph /  27.4 km/h 27.0 mph /  43.5 km/h 78 % 0.00 in /  0 mm 0 W/m2
04:16 48.2 °F /  9 °C 41.7 °F /  5.4 °C 30.05 in /  1017.5 hPa WNW 16.0 mph /  25.7 km/h 25.0 mph /  40.2 km/h 78 % 0.00 in /  0 mm 0 W/m2
04:21 48.2 °F /  9 °C 41.7 °F /  5.4 °C 30.05 in /  1017.5 hPa WNW 17.0 mph /  27.4 km/h 27.0 mph /  43.5 km/h 78 % 0.00 in /  0 mm 0 W/m2
04:26 48.2 °F /  9 °C 41.7 °F /  5.4 °C 30.05 in /  1017.5 hPa WNW 17.0 mph /  27.4 km/h 27.0 mph /  43.5 km/h 78 % 0.00 in /  0 mm 0 W/m2
04:31 48.0 °F /  8.9 °C 41.5 °F /  5.3 °C 30.05 in /  1017.5 hPa WNW 16.0 mph /  25.7 km/h 29.0 mph /  46.7 km/h 78 % 0.00 in /  0 mm 0 W/m2
04:36 48.2 °F /  9 °C 41.7 °F /  5.4 °C 30.04 in /  1017.2 hPa WNW 16.0 mph /  25.7 km/h 29.0 mph /  46.7 km/h 78 % 0.00 in /  0 mm 0 W/m2
04:41 48.0 °F /  8.9 °C 41.2 °F /  5.1 °C 30.04 in /  1017.2 hPa WNW 16.0 mph /  25.7 km/h 26.0 mph /  41.8 km/h 77 % 0.00 in /  0 mm 0 W/m2
04:46 48.0 °F /  8.9 °C 41.2 °F /  5.1 °C 30.04 in /  1017.2 hPa WNW 16.0 mph /  25.7 km/h 25.0 mph /  40.2 km/h 77 % 0.00 in /  0 mm 0 W/m2
04:51 48.0 °F /  8.9 °C 41.2 °F /  5.1 °C 30.04 in /  1017.2 hPa WNW 17.0 mph /  27.4 km/h 25.0 mph /  40.2 km/h 77 % 0.00 in /  0 mm 0 W/m2
04:56 48.0 °F /  8.9 °C 41.2 °F /  5.1 °C 30.03 in /  1016.8 hPa WNW 16.0 mph /  25.7 km/h 25.0 mph /  40.2 km/h 77 % 0.00 in /  0 mm 0 W/m2
05:01 48.0 °F /  8.9 °C 41.5 °F /  5.3 °C 30.03 in /  1016.8 hPa WNW 15.0 mph /  24.1 km/h 23.0 mph /  37 km/h 78 % 0.00 in /  0 mm 0 W/m2
05:06 48.0 °F /  8.9 °C 41.5 °F /  5.3 °C 30.03 in /  1016.8 hPa WNW 16.0 mph /  25.7 km/h 29.0 mph /  46.7 km/h 78 % 0.00 in /  0 mm 0 W/m2
05:11 48.0 °F /  8.9 °C 41.5 °F /  5.3 °C 30.03 in /  1016.8 hPa WNW 18.0 mph /  29 km/h 29.0 mph /  46.7 km/h 78 % 0.00 in /  0 mm 0 W/m2
05:16 48.0 °F /  8.9 °C 41.5 °F /  5.3 °C 30.03 in /  1016.8 hPa WNW 17.0 mph /  27.4 km/h 27.0 mph /  43.5 km/h 78 % 0.00 in /  0 mm 0 W/m2
05:21 48.0 °F /  8.9 °C 41.5 °F /  5.3 °C 30.03 in /  1016.8 hPa WNW 16.0 mph /  25.7 km/h 27.0 mph /  43.5 km/h 78 % 0.00 in /  0 mm 0 W/m2
05:26 48.0 °F /  8.9 °C 41.5 °F /  5.3 °C 30.03 in /  1016.8 hPa WNW 17.0 mph /  27.4 km/h 32.0 mph /  51.5 km/h 78 % 0.00 in /  0 mm 0 W/m2
05:31 48.0 °F /  8.9 °C 41.5 °F /  5.3 °C 30.02 in /  1016.5 hPa WNW 18.0 mph /  29 km/h 32.0 mph /  51.5 km/h 78 % 0.00 in /  0 mm 0 W/m2
05:36 48.0 °F /  8.9 °C 41.5 °F /  5.3 °C 30.02 in /  1016.5 hPa WNW 18.0 mph /  29 km/h 27.0 mph /  43.5 km/h 78 % 0.00 in /  0 mm 0 W/m2
05:37 48.0 °F /  8.9 °C 41.5 °F /  5.3 °C 30.02 in /  1016.5 hPa WNW 18.0 mph /  29 km/h 27.0 mph /  43.5 km/h 78 % 0.00 in /  0 mm 0 W/m2
05:42 48.0 °F /  8.9 °C 41.5 °F /  5.3 °C 30.01 in /  1016.1 hPa WNW 17.0 mph /  27.4 km/h 31.0 mph /  49.9 km/h 78 % 0.00 in /  0 mm 0 W/m2
05:47 48.0 °F /  8.9 °C 41.8 °F /  5.4 °C 30.01 in /  1016.1 hPa WNW 18.0 mph /  29 km/h 31.0 mph /  49.9 km/h 79 % 0.00 in /  0 mm 0 W/m2
05:52 48.0 °F /  8.9 °C 41.5 °F /  5.3 °C 30.01 in /  1016.1 hPa WNW 17.0 mph /  27.4 km/h 32.0 mph /  51.5 km/h 78 % 0.00 in /  0 mm 0 W/m2
05:57 48.0 °F /  8.9 °C 41.5 °F /  5.3 °C 30.01 in /  1016.1 hPa WNW 18.0 mph /  29 km/h 34.0 mph /  54.7 km/h 78 % 0.00 in /  0 mm 0 W/m2
06:02 48.0 °F /  8.9 °C 41.8 °F /  5.4 °C 30.01 in /  1016.1 hPa WNW 18.0 mph /  29 km/h 34.0 mph /  54.7 km/h 79 % 0.00 in /  0 mm 0 W/m2
06:07 48.0 °F /  8.9 °C 41.8 °F /  5.4 °C 30.01 in /  1016.1 hPa WNW 16.0 mph /  25.7 km/h 27.0 mph /  43.5 km/h 79 % 0.00 in /  0 mm 0 W/m2
06:12 48.0 °F /  8.9 °C 41.8 °F /  5.4 °C 30.01 in /  1016.1 hPa WNW 16.0 mph /  25.7 km/h 27.0 mph /  43.5 km/h 79 % 0.00 in /  0 mm 0 W/m2
06:17 47.8 °F /  8.8 °C 41.6 °F /  5.3 °C 30.01 in /  1016.1 hPa WNW 16.0 mph /  25.7 km/h 27.0 mph /  43.5 km/h 79 % 0.00 in /  0 mm 0 W/m2
06:22 47.8 °F /  8.8 °C 42.0 °F /  5.6 °C 30.01 in /  1016.1 hPa WNW 16.0 mph /  25.7 km/h 26.0 mph /  41.8 km/h 80 % 0.00 in /  0 mm 7 W/m2
06:27 47.8 °F /  8.8 °C 42.0 °F /  5.6 °C 30.01 in /  1016.1 hPa WNW 16.0 mph /  25.7 km/h 25.0 mph /  40.2 km/h 80 % 0.00 in /  0 mm 11 W/m2
06:32 47.7 °F /  8.7 °C 41.8 °F /  5.4 °C 30.00 in /  1015.8 hPa WNW 16.0 mph /  25.7 km/h 28.0 mph /  45.1 km/h 80 % 0.00 in /  0 mm 11 W/m2
06:37 47.7 °F /  8.7 °C 42.1 °F /  5.6 °C 30.00 in /  1015.8 hPa WNW 16.0 mph /  25.7 km/h 28.0 mph /  45.1 km/h 81 % 0.00 in /  0 mm 11 W/m2
06:42 47.7 °F /  8.7 °C 42.1 °F /  5.6 °C 30.00 in /  1015.8 hPa WNW 15.0 mph /  24.1 km/h 25.0 mph /  40.2 km/h 81 % 0.00 in /  0 mm 14 W/m2
06:47 47.7 °F /  8.7 °C 42.1 °F /  5.6 °C 30.00 in /  1015.8 hPa WNW 16.0 mph /  25.7 km/h 29.0 mph /  46.7 km/h 81 % 0.00 in /  0 mm 16 W/m2
06:52 47.7 °F /  8.7 °C 42.1 °F /  5.6 °C 30.00 in /  1015.8 hPa WNW 17.0 mph /  27.4 km/h 29.0 mph /  46.7 km/h 81 % 0.00 in /  0 mm 18 W/m2
06:57 47.7 °F /  8.7 °C 42.1 °F /  5.6 °C 30.00 in /  1015.8 hPa WNW 16.0 mph /  25.7 km/h 29.0 mph /  46.7 km/h 81 % 0.00 in /  0 mm 19 W/m2
07:02 47.7 °F /  8.7 °C 42.1 °F /  5.6 °C 30.00 in /  1015.8 hPa WNW 17.0 mph /  27.4 km/h 30.0 mph /  48.3 km/h 81 % 0.00 in /  0 mm 25 W/m2
07:07 47.7 °F /  8.7 °C 42.1 °F /  5.6 °C 30.00 in /  1015.8 hPa WNW 18.0 mph /  29 km/h 30.0 mph /  48.3 km/h 81 % 0.00 in /  0 mm 26 W/m2
07:12 47.7 °F /  8.7 °C 42.1 °F /  5.6 °C 30.00 in /  1015.8 hPa WNW 17.0 mph /  27.4 km/h 31.0 mph /  49.9 km/h 81 % 0.00 in /  0 mm 25 W/m2
07:17 47.7 °F /  8.7 °C 42.4 °F /  5.8 °C 30.00 in /  1015.8 hPa WNW 16.0 mph /  25.7 km/h 31.0 mph /  49.9 km/h 82 % 0.00 in /  0 mm 30 W/m2
07:22 47.7 °F /  8.7 °C 42.4 °F /  5.8 °C 30.00 in /  1015.8 hPa WNW 16.0 mph /  25.7 km/h 29.0 mph /  46.7 km/h 82 % 0.00 in /  0 mm 40 W/m2
07:27 47.7 °F /  8.7 °C 42.4 °F /  5.8 °C 30.00 in /  1015.8 hPa WNW 17.0 mph /  27.4 km/h 29.0 mph /  46.7 km/h 82 % 0.00 in /  0 mm 44 W/m2
07:32 47.7 °F /  8.7 °C 42.8 °F /  6 °C 30.00 in /  1015.8 hPa WNW 19.0 mph /  30.6 km/h 30.0 mph /  48.3 km/h 83 % 0.00 in /  0 mm 42 W/m2
07:33 47.8 °F /  8.8 °C 42.9 °F /  6.1 °C 30.00 in /  1015.8 hPa WNW 19.0 mph /  30.6 km/h 30.0 mph /  48.3 km/h 83 % 0.00 in /  0 mm 44 W/m2
07:38 47.7 °F /  8.7 °C 42.8 °F /  6 °C 30.00 in /  1015.8 hPa WNW 19.0 mph /  30.6 km/h 30.0 mph /  48.3 km/h 83 % 0.00 in /  0 mm 49 W/m2
07:43 47.7 °F /  8.7 °C 42.8 °F /  6 °C 30.00 in /  1015.8 hPa WNW 18.0 mph /  29 km/h 29.0 mph /  46.7 km/h 83 % 0.00 in /  0 mm 56 W/m2
07:48 47.7 °F /  8.7 °C 43.1 °F /  6.2 °C 30.00 in /  1015.8 hPa West 17.0 mph /  27.4 km/h 29.0 mph /  46.7 km/h 84 % 0.00 in /  0 mm 62 W/m2
07:53 47.7 °F /  8.7 °C 43.1 °F /  6.2 °C 30.00 in /  1015.8 hPa West 16.0 mph /  25.7 km/h 27.0 mph /  43.5 km/h 84 % 0.00 in /  0 mm 65 W/m2
07:58 47.7 °F /  8.7 °C 43.1 °F /  6.2 °C 30.00 in /  1015.8 hPa West 15.0 mph /  24.1 km/h 26.0 mph /  41.8 km/h 84 % 0.00 in /  0 mm 65 W/m2
08:03 47.7 °F /  8.7 °C 43.1 °F /  6.2 °C 30.00 in /  1015.8 hPa West 15.0 mph /  24.1 km/h 28.0 mph /  45.1 km/h 84 % 0.00 in /  0 mm 67 W/m2
08:08 47.7 °F /  8.7 °C 43.4 °F /  6.3 °C 30.00 in /  1015.8 hPa West 17.0 mph /  27.4 km/h 28.0 mph /  45.1 km/h 85 % 0.00 in /  0 mm 67 W/m2
08:13 47.7 °F /  8.7 °C 43.4 °F /  6.3 °C 30.00 in /  1015.8 hPa West 16.0 mph /  25.7 km/h 26.0 mph /  41.8 km/h 85 % 0.00 in /  0 mm 74 W/m2
08:18 47.8 °F /  8.8 °C 43.2 °F /  6.2 °C 30.00 in /  1015.8 hPa West 16.0 mph /  25.7 km/h 28.0 mph /  45.1 km/h 84 % 0.00 in /  0 mm 67 W/m2
08:23 47.8 °F /  8.8 °C 43.2 °F /  6.2 °C 30.00 in /  1015.8 hPa West 15.0 mph /  24.1 km/h 28.0 mph /  45.1 km/h 84 % 0.00 in /  0 mm 62 W/m2
08:28 47.8 °F /  8.8 °C 43.2 °F /  6.2 °C 30.00 in /  1015.8 hPa West 14.0 mph /  22.5 km/h 23.0 mph /  37 km/h 84 % 0.00 in /  0 mm 58 W/m2
08:33 48.0 °F /  8.9 °C 43.4 °F /  6.3 °C 30.00 in /  1015.8 hPa West 14.0 mph /  22.5 km/h 26.0 mph /  41.8 km/h 84 % 0.00 in /  0 mm 49 W/m2
08:38 48.0 °F /  8.9 °C 43.4 °F /  6.3 °C 30.00 in /  1015.8 hPa West 15.0 mph /  24.1 km/h 26.0 mph /  41.8 km/h 84 % 0.00 in /  0 mm 44 W/m2
08:43 48.0 °F /  8.9 °C 43.4 °F /  6.3 °C 30.00 in /  1015.8 hPa West 15.0 mph /  24.1 km/h 24.0 mph /  38.6 km/h 84 % 0.00 in /  0 mm 53 W/m2
08:48 48.0 °F /  8.9 °C 43.4 °F /  6.3 °C 30.00 in /  1015.8 hPa West 14.0 mph /  22.5 km/h 24.0 mph /  38.6 km/h 84 % 0.00 in /  0 mm 54 W/m2
08:53 48.0 °F /  8.9 °C 43.4 °F /  6.3 °C 30.00 in /  1015.8 hPa West 14.0 mph /  22.5 km/h 24.0 mph /  38.6 km/h 84 % 0.00 in /  0 mm 81 W/m2
08:58 48.2 °F /  9 °C 43.6 °F /  6.4 °C 29.99 in /  1015.5 hPa West 14.0 mph /  22.5 km/h 23.0 mph /  37 km/h 84 % 0.00 in /  0 mm 88 W/m2
09:04 48.4 °F /  9.1 °C 43.8 °F /  6.6 °C 30.00 in /  1015.8 hPa West 14.0 mph /  22.5 km/h 24.0 mph /  38.6 km/h 84 % 0.00 in /  0 mm 49 W/m2
09:09 48.4 °F /  9.1 °C 43.8 °F /  6.6 °C 29.99 in /  1015.5 hPa West 15.0 mph /  24.1 km/h 27.0 mph /  43.5 km/h 84 % 0.00 in /  0 mm 53 W/m2
09:14 48.4 °F /  9.1 °C 43.8 °F /  6.6 °C 30.00 in /  1015.8 hPa West 14.0 mph /  22.5 km/h 27.0 mph /  43.5 km/h 84 % 0.00 in /  0 mm 44 W/m2
09:19 48.4 °F /  9.1 °C 43.8 °F /  6.6 °C 29.99 in /  1015.5 hPa West 13.0 mph /  20.9 km/h 22.0 mph /  35.4 km/h 84 % 0.00 in /  0 mm 76 W/m2
09:29 48.6 °F /  9.2 °C 43.9 °F /  6.6 °C 29.99 in /  1015.5 hPa West 11.0 mph /  17.7 km/h 20.0 mph /  32.2 km/h 84 % 0.00 in /  0 mm 109 W/m2
09:34 48.7 °F /  9.3 °C 44.1 °F /  6.7 °C 29.99 in /  1015.5 hPa West 10.0 mph /  16.1 km/h 16.0 mph /  25.7 km/h 84 % 0.00 in /  0 mm 109 W/m2
09:39 48.9 °F /  9.4 °C 44.0 °F /  6.7 °C 29.99 in /  1015.5 hPa West 10.0 mph /  16.1 km/h 16.0 mph /  25.7 km/h 83 % 0.00 in /  0 mm 125 W/m2
09:44 48.9 °F /  9.4 °C 44.0 °F /  6.7 °C 29.99 in /  1015.5 hPa West 10.0 mph /  16.1 km/h 21.0 mph /  33.8 km/h 83 % 0.00 in /  0 mm 76 W/m2
09:49 48.9 °F /  9.4 °C 44.0 °F /  6.7 °C 30.00 in /  1015.8 hPa West 10.0 mph /  16.1 km/h 21.0 mph /  33.8 km/h 83 % 0.00 in /  0 mm 69 W/m2
09:59 48.9 °F /  9.4 °C 44.0 °F /  6.7 °C 30.00 in /  1015.8 hPa West 10.0 mph /  16.1 km/h 16.0 mph /  25.7 km/h 83 % 0.00 in /  0 mm 79 W/m2
10:04 48.9 °F /  9.4 °C 44.3 °F /  6.8 °C 29.99 in /  1015.5 hPa West 12.0 mph /  19.3 km/h 26.0 mph /  41.8 km/h 84 % 0.00 in /  0 mm 158 W/m2
10:09 49.3 °F /  9.6 °C 44.6 °F /  7 °C 29.99 in /  1015.5 hPa West 12.0 mph /  19.3 km/h 26.0 mph /  41.8 km/h 84 % 0.00 in /  0 mm 241 W/m2
10:14 49.6 °F /  9.8 °C 45.0 °F /  7.2 °C 29.99 in /  1015.5 hPa West 12.0 mph /  19.3 km/h 23.0 mph /  37 km/h 84 % 0.00 in /  0 mm 380 W/m2
10:19 50.5 °F /  10.3 °C 45.6 °F /  7.6 °C 29.98 in /  1015.1 hPa West 14.0 mph /  22.5 km/h 25.0 mph /  40.2 km/h 83 % 0.00 in /  0 mm 413 W/m2
10:24 51.4 °F /  10.8 °C 45.8 °F /  7.7 °C 29.98 in /  1015.1 hPa West 15.0 mph /  24.1 km/h 27.0 mph /  43.5 km/h 81 % 0.00 in /  0 mm 490 W/m2
10:29 51.6 °F /  10.9 °C 45.7 °F /  7.6 °C 29.98 in /  1015.1 hPa West 16.0 mph /  25.7 km/h 27.0 mph /  43.5 km/h 80 % 0.00 in /  0 mm 290 W/m2
10:34 52.0 °F /  11.1 °C 46.0 °F /  7.8 °C 29.98 in /  1015.1 hPa West 16.0 mph /  25.7 km/h 28.0 mph /  45.1 km/h 80 % 0.00 in /  0 mm 290 W/m2
10:39 52.3 °F /  11.3 °C 46.0 °F /  7.8 °C 29.98 in /  1015.1 hPa West 14.0 mph /  22.5 km/h 28.0 mph /  45.1 km/h 79 % 0.00 in /  0 mm 454 W/m2
10:44 52.3 °F /  11.3 °C 45.7 °F /  7.6 °C 29.98 in /  1015.1 hPa West 14.0 mph /  22.5 km/h 28.0 mph /  45.1 km/h 78 % 0.00 in /  0 mm 336 W/m2
10:49 52.2 °F /  11.2 °C 45.8 °F /  7.7 °C 29.98 in /  1015.1 hPa West 16.0 mph /  25.7 km/h 28.0 mph /  45.1 km/h 79 % 0.00 in /  0 mm 279 W/m2
10:54 52.0 °F /  11.1 °C 45.7 °F /  7.6 °C 29.98 in /  1015.1 hPa West 17.0 mph /  27.4 km/h 25.0 mph /  40.2 km/h 79 % 0.00 in /  0 mm 193 W/m2
10:59 51.8 °F /  11 °C 45.5 °F /  7.5 °C 29.98 in /  1015.1 hPa West 15.0 mph /  24.1 km/h 25.0 mph /  40.2 km/h 79 % 0.00 in /  0 mm 193 W/m2
11:04 51.6 °F /  10.9 °C 45.7 °F /  7.6 °C 29.98 in /  1015.1 hPa West 14.0 mph /  22.5 km/h 26.0 mph /  41.8 km/h 80 % 0.00 in /  0 mm 302 W/m2
11:09 51.6 °F /  10.9 °C 45.7 °F /  7.6 °C 29.98 in /  1015.1 hPa West 15.0 mph /  24.1 km/h 26.0 mph /  41.8 km/h 80 % 0.00 in /  0 mm 304 W/m2
11:15 52.3 °F /  11.3 °C 46.4 °F /  8 °C 29.98 in /  1015.1 hPa West 16.0 mph /  25.7 km/h 28.0 mph /  45.1 km/h 80 % 0.00 in /  0 mm 626 W/m2
11:20 52.7 °F /  11.5 °C 46.4 °F /  8 °C 29.97 in /  1014.8 hPa West 16.0 mph /  25.7 km/h 28.0 mph /  45.1 km/h 79 % 0.00 in /  0 mm 619 W/m2
11:25 53.2 °F /  11.8 °C 46.6 °F /  8.1 °C 29.97 in /  1014.8 hPa West 15.0 mph /  24.1 km/h 28.0 mph /  45.1 km/h 78 % 0.00 in /  0 mm 432 W/m2
11:30 53.4 °F /  11.9 °C 46.4 °F /  8 °C 29.98 in /  1015.1 hPa West 17.0 mph /  27.4 km/h 28.0 mph /  45.1 km/h 77 % 0.00 in /  0 mm 464 W/m2
11:35 53.2 °F /  11.8 °C 46.2 °F /  7.9 °C 29.98 in /  1015.1 hPa West 17.0 mph /  27.4 km/h 27.0 mph /  43.5 km/h 77 % 0.00 in /  0 mm 473 W/m2
11:40 53.2 °F /  11.8 °C 46.2 °F /  7.9 °C 29.98 in /  1015.1 hPa West 16.0 mph /  25.7 km/h 26.0 mph /  41.8 km/h 77 % 0.00 in /  0 mm 385 W/m2
11:45 54.0 °F /  12.2 °C 46.6 °F /  8.1 °C 29.98 in /  1015.1 hPa West 16.0 mph /  25.7 km/h 26.0 mph /  41.8 km/h 76 % 0.00 in /  0 mm 385 W/m2
11:50 54.1 °F /  12.3 °C 46.4 °F /  8 °C 29.98 in /  1015.1 hPa West 16.0 mph /  25.7 km/h 25.0 mph /  40.2 km/h 75 % 0.00 in /  0 mm 316 W/m2
11:55 54.3 °F /  12.4 °C 46.9 °F /  8.3 °C 29.98 in /  1015.1 hPa West 13.0 mph /  20.9 km/h 25.0 mph /  40.2 km/h 76 % 0.00 in /  0 mm 431 W/m2
12:00 54.7 °F /  12.6 °C 47.3 °F /  8.5 °C 29.98 in /  1015.1 hPa West 13.0 mph /  20.9 km/h 23.0 mph /  37 km/h 76 % 0.00 in /  0 mm 519 W/m2
12:05 54.9 °F /  12.7 °C 47.1 °F /  8.4 °C 29.98 in /  1015.1 hPa West 15.0 mph /  24.1 km/h 23.0 mph /  37 km/h 75 % 0.00 in /  0 mm 325 W/m2
12:10 54.1 °F /  12.3 °C 46.4 °F /  8 °C 29.98 in /  1015.1 hPa West 15.0 mph /  24.1 km/h 25.0 mph /  40.2 km/h 75 % 0.00 in /  0 mm 357 W/m2
12:15 54.1 °F /  12.3 °C 46.7 °F /  8.2 °C 29.98 in /  1015.1 hPa West 15.0 mph /  24.1 km/h 25.0 mph /  40.2 km/h 76 % 0.00 in /  0 mm 443 W/m2
12:20 54.5 °F /  12.5 °C 47.1 °F /  8.4 °C 29.98 in /  1015.1 hPa West 15.0 mph /  24.1 km/h 30.0 mph /  48.3 km/h 76 % 0.00 in /  0 mm 443 W/m2
12:25 54.7 °F /  12.6 °C 46.6 °F /  8.1 °C 29.98 in /  1015.1 hPa West 16.0 mph /  25.7 km/h 30.0 mph /  48.3 km/h 74 % 0.00 in /  0 mm 568 W/m2
12:30 54.7 °F /  12.6 °C 46.6 °F /  8.1 °C 29.97 in /  1014.8 hPa West 17.0 mph /  27.4 km/h 29.0 mph /  46.7 km/h 74 % 0.00 in /  0 mm 789 W/m2
12:35 55.2 °F /  12.9 °C 47.4 °F /  8.6 °C 29.97 in /  1014.8 hPa West 18.0 mph /  29 km/h 29.0 mph /  46.7 km/h 75 % 0.00 in /  0 mm 671 W/m2
12:40 55.8 °F /  13.2 °C 47.2 °F /  8.4 °C 29.98 in /  1015.1 hPa West 18.0 mph /  29 km/h 29.0 mph /  46.7 km/h 73 % 0.00 in /  0 mm 439 W/m2
12:45 55.2 °F /  12.9 °C 46.7 °F /  8.2 °C 29.98 in /  1015.1 hPa West 19.0 mph /  30.6 km/h 29.0 mph /  46.7 km/h 73 % 0.00 in /  0 mm 385 W/m2
12:50 55.0 °F /  12.8 °C 46.9 °F /  8.3 °C 29.98 in /  1015.1 hPa West 16.0 mph /  25.7 km/h 29.0 mph /  46.7 km/h 74 % 0.00 in /  0 mm 371 W/m2
12:55 55.0 °F /  12.8 °C 46.9 °F /  8.3 °C 29.98 in /  1015.1 hPa West 15.0 mph /  24.1 km/h 27.0 mph /  43.5 km/h 74 % 0.00 in /  0 mm 555 W/m2
13:00 55.0 °F /  12.8 °C 46.9 °F /  8.3 °C 29.98 in /  1015.1 hPa WNW 16.0 mph /  25.7 km/h 29.0 mph /  46.7 km/h 74 % 0.00 in /  0 mm 285 W/m2
13:05 54.9 °F /  12.7 °C 46.7 °F /  8.2 °C 29.99 in /  1015.5 hPa WNW 15.0 mph /  24.1 km/h 29.0 mph /  46.7 km/h 74 % 0.00 in /  0 mm 230 W/m2
13:10 54.3 °F /  12.4 °C 46.6 °F /  8.1 °C 29.98 in /  1015.1 hPa WNW 14.0 mph /  22.5 km/h 27.0 mph /  43.5 km/h 75 % 0.00 in /  0 mm 186 W/m2
13:15 54.0 °F /  12.2 °C 46.6 °F /  8.1 °C 29.99 in /  1015.5 hPa West 14.0 mph /  22.5 km/h 27.0 mph /  43.5 km/h 76 % 0.00 in /  0 mm 320 W/m2
13:20 54.0 °F /  12.2 °C 46.6 °F /  8.1 °C 29.98 in /  1015.1 hPa West 15.0 mph /  24.1 km/h 26.0 mph /  41.8 km/h 76 % 0.00 in /  0 mm 380 W/m2
13:25 54.0 °F /  12.2 °C 46.6 °F /  8.1 °C 29.98 in /  1015.1 hPa West 16.0 mph /  25.7 km/h 32.0 mph /  51.5 km/h 76 % 0.00 in /  0 mm 457 W/m2
13:30 54.1 °F /  12.3 °C 47.1 °F /  8.4 °C 29.98 in /  1015.1 hPa West 16.0 mph /  25.7 km/h 32.0 mph /  51.5 km/h 77 % 0.00 in /  0 mm 399 W/m2
13:35 54.1 °F /  12.3 °C 46.7 °F /  8.2 °C 29.98 in /  1015.1 hPa West 16.0 mph /  25.7 km/h 33.0 mph /  53.1 km/h 76 % 0.00 in /  0 mm 315 W/m2
13:40 54.1 °F /  12.3 °C 46.7 °F /  8.2 °C 29.97 in /  1014.8 hPa WNW 15.0 mph /  24.1 km/h 33.0 mph /  53.1 km/h 76 % 0.00 in /  0 mm 276 W/m2
13:45 54.1 °F /  12.3 °C 46.7 °F /  8.2 °C 29.97 in /  1014.8 hPa WNW 16.0 mph /  25.7 km/h 26.0 mph /  41.8 km/h 76 % 0.00 in /  0 mm 309 W/m2
13:50 54.1 °F /  12.3 °C 46.7 °F /  8.2 °C 29.97 in /  1014.8 hPa West 16.0 mph /  25.7 km/h 29.0 mph /  46.7 km/h 76 % 0.00 in /  0 mm 301 W/m2
13:55 54.3 °F /  12.4 °C 46.9 °F /  8.3 °C 29.96 in /  1014.4 hPa West 14.0 mph /  22.5 km/h 29.0 mph /  46.7 km/h 76 % 0.00 in /  0 mm 325 W/m2
14:00 54.3 °F /  12.4 °C 46.9 °F /  8.3 °C 29.96 in /  1014.4 hPa West 14.0 mph /  22.5 km/h 24.0 mph /  38.6 km/h 76 % 0.00 in /  0 mm 545 W/m2
14:05 54.3 °F /  12.4 °C 46.9 °F /  8.3 °C 29.96 in /  1014.4 hPa West 16.0 mph /  25.7 km/h 26.0 mph /  41.8 km/h 76 % 0.00 in /  0 mm 429 W/m2
14:11 54.3 °F /  12.4 °C 47.3 °F /  8.5 °C 29.96 in /  1014.4 hPa West 16.0 mph /  25.7 km/h 28.0 mph /  45.1 km/h 77 % 0.00 in /  0 mm 327 W/m2
14:16 54.7 °F /  12.6 °C 47.3 °F /  8.5 °C 29.97 in /  1014.8 hPa West 17.0 mph /  27.4 km/h 28.0 mph /  45.1 km/h 76 % 0.00 in /  0 mm 714 W/m2
14:21 55.0 °F /  12.8 °C 48.0 °F /  8.9 °C 29.96 in /  1014.4 hPa West 14.0 mph /  22.5 km/h 28.0 mph /  45.1 km/h 77 % 0.00 in /  0 mm 304 W/m2
14:26 55.2 °F /  12.9 °C 47.4 °F /  8.6 °C 29.96 in /  1014.4 hPa WNW 13.0 mph /  20.9 km/h 30.0 mph /  48.3 km/h 75 % 0.00 in /  0 mm 308 W/m2
14:31 54.9 °F /  12.7 °C 47.1 °F /  8.4 °C 29.96 in /  1014.4 hPa West 14.0 mph /  22.5 km/h 30.0 mph /  48.3 km/h 75 % 0.00 in /  0 mm 276 W/m2
14:36 54.7 °F /  12.6 °C 46.9 °F /  8.3 °C 29.96 in /  1014.4 hPa West 17.0 mph /  27.4 km/h 27.0 mph /  43.5 km/h 75 % 0.00 in /  0 mm 373 W/m2
14:41 54.7 °F /  12.6 °C 47.6 °F /  8.7 °C 29.96 in /  1014.4 hPa WNW 18.0 mph /  29 km/h 29.0 mph /  46.7 km/h 77 % 0.00 in /  0 mm 768 W/m2
14:46 55.0 °F /  12.8 °C 48.0 °F /  8.9 °C 29.95 in /  1014.1 hPa WNW 18.0 mph /  29 km/h 29.0 mph /  46.7 km/h 77 % 0.00 in /  0 mm 700 W/m2
14:51 55.2 °F /  12.9 °C 47.8 °F /  8.8 °C 29.95 in /  1014.1 hPa WNW 18.0 mph /  29 km/h 28.0 mph /  45.1 km/h 76 % 0.00 in /  0 mm 557 W/m2
14:56 55.2 °F /  12.9 °C 47.4 °F /  8.6 °C 29.95 in /  1014.1 hPa WNW 17.0 mph /  27.4 km/h 28.0 mph /  45.1 km/h 75 % 0.00 in /  0 mm 501 W/m2
15:01 55.0 °F /  12.8 °C 47.3 °F /  8.5 °C 29.95 in /  1014.1 hPa West 18.0 mph /  29 km/h 31.0 mph /  49.9 km/h 75 % 0.00 in /  0 mm 359 W/m2
15:07 55.0 °F /  12.8 °C 47.6 °F /  8.7 °C 29.95 in /  1014.1 hPa West 19.0 mph /  30.6 km/h 31.0 mph /  49.9 km/h 76 % 0.00 in /  0 mm 497 W/m2
15:12 55.0 °F /  12.8 °C 47.6 °F /  8.7 °C 29.95 in /  1014.1 hPa WNW 19.0 mph /  30.6 km/h 29.0 mph /  46.7 km/h 76 % 0.00 in /  0 mm 563 W/m2
15:17 55.8 °F /  13.2 °C 48.0 °F /  8.9 °C 29.95 in /  1014.1 hPa WNW 19.0 mph /  30.6 km/h 30.0 mph /  48.3 km/h 75 % 0.00 in /  0 mm 557 W/m2
15:22 55.9 °F /  13.3 °C 47.8 °F /  8.8 °C 29.94 in /  1013.8 hPa WNW 19.0 mph /  30.6 km/h 31.0 mph /  49.9 km/h 74 % 0.00 in /  0 mm 557 W/m2
15:27 55.9 °F /  13.3 °C 47.8 °F /  8.8 °C 29.94 in /  1013.8 hPa WNW 18.0 mph /  29 km/h 31.0 mph /  49.9 km/h 74 % 0.00 in /  0 mm 810 W/m2
15:32 56.1 °F /  13.4 °C 46.8 °F /  8.2 °C 29.94 in /  1013.8 hPa WNW 18.0 mph /  29 km/h 28.0 mph /  45.1 km/h 71 % 0.00 in /  0 mm 726 W/m2
15:37 56.1 °F /  13.4 °C 46.8 °F /  8.2 °C 29.94 in /  1013.8 hPa WNW 18.0 mph /  29 km/h 28.0 mph /  45.1 km/h 71 % 0.00 in /  0 mm 719 W/m2
15:42 56.5 °F /  13.6 °C 46.8 °F /  8.2 °C 29.95 in /  1014.1 hPa WNW 18.0 mph /  29 km/h 32.0 mph /  51.5 km/h 70 % 0.00 in /  0 mm 833 W/m2
15:47 56.5 °F /  13.6 °C 46.4 °F /  8 °C 29.95 in /  1014.1 hPa WNW 18.0 mph /  29 km/h 32.0 mph /  51.5 km/h 69 % 0.00 in /  0 mm 684 W/m2
15:52 56.7 °F /  13.7 °C 46.2 °F /  7.9 °C 29.94 in /  1013.8 hPa WNW 17.0 mph /  27.4 km/h 32.0 mph /  51.5 km/h 68 % 0.00 in /  0 mm 422 W/m2
15:57 56.1 °F /  13.4 °C 45.7 °F /  7.6 °C 29.94 in /  1013.8 hPa WNW 19.0 mph /  30.6 km/h 29.0 mph /  46.7 km/h 68 % 0.00 in /  0 mm 341 W/m2
16:02 55.8 °F /  13.2 °C 46.1 °F /  7.8 °C 29.95 in /  1014.1 hPa WNW 19.0 mph /  30.6 km/h 29.0 mph /  46.7 km/h 70 % 0.00 in /  0 mm 640 W/m2
16:07 55.6 °F /  13.1 °C 46.3 °F /  7.9 °C 29.94 in /  1013.8 hPa WNW 17.0 mph /  27.4 km/h 27.0 mph /  43.5 km/h 71 % 0.00 in /  0 mm 406 W/m2
16:12 55.8 °F /  13.2 °C 46.5 °F /  8.1 °C 29.94 in /  1013.8 hPa WNW 14.0 mph /  22.5 km/h 27.0 mph /  43.5 km/h 71 % 0.00 in /  0 mm 591 W/m2
16:17 55.8 °F /  13.2 °C 45.7 °F /  7.6 °C 29.93 in /  1013.4 hPa WNW 15.0 mph /  24.1 km/h 27.0 mph /  43.5 km/h 69 % 0.00 in /  0 mm 613 W/m2
16:22 55.4 °F /  13 °C 45.0 °F /  7.2 °C 29.94 in /  1013.8 hPa WNW 18.0 mph /  29 km/h 31.0 mph /  49.9 km/h 68 % 0.00 in /  0 mm 515 W/m2
16:27 55.0 °F /  12.8 °C 44.3 °F /  6.8 °C 29.94 in /  1013.8 hPa WNW 18.0 mph /  29 km/h 31.0 mph /  49.9 km/h 67 % 0.00 in /  0 mm 483 W/m2
16:32 55.0 °F /  12.8 °C 44.3 °F /  6.8 °C 29.94 in /  1013.8 hPa WNW 16.0 mph /  25.7 km/h 28.0 mph /  45.1 km/h 67 % 0.00 in /  0 mm 522 W/m2
16:37 55.0 °F /  12.8 °C 43.9 °F /  6.6 °C 29.94 in /  1013.8 hPa WNW 15.0 mph /  24.1 km/h 28.0 mph /  45.1 km/h 66 % 0.00 in /  0 mm 499 W/m2
16:42 55.2 °F /  12.9 °C 44.1 °F /  6.7 °C 29.93 in /  1013.4 hPa WNW 14.0 mph /  22.5 km/h 28.0 mph /  45.1 km/h 66 % 0.00 in /  0 mm 455 W/m2
16:47 55.2 °F /  12.9 °C 43.2 °F /  6.2 °C 29.94 in /  1013.8 hPa WNW 15.0 mph /  24.1 km/h 31.0 mph /  49.9 km/h 64 % 0.00 in /  0 mm 459 W/m2
16:52 55.0 °F /  12.8 °C 43.1 °F /  6.2 °C 29.94 in /  1013.8 hPa WNW 17.0 mph /  27.4 km/h 31.0 mph /  49.9 km/h 64 % 0.00 in /  0 mm 329 W/m2
16:57 54.5 °F /  12.5 °C 42.6 °F /  5.9 °C 29.93 in /  1013.4 hPa WNW 17.0 mph /  27.4 km/h 29.0 mph /  46.7 km/h 64 % 0.00 in /  0 mm 345 W/m2
17:02 54.3 °F /  12.4 °C 42.4 °F /  5.8 °C 29.93 in /  1013.4 hPa WNW 18.0 mph /  29 km/h 32.0 mph /  51.5 km/h 64 % 0.00 in /  0 mm 381 W/m2
17:07 54.1 °F /  12.3 °C 41.4 °F /  5.2 °C 29.93 in /  1013.4 hPa WNW 18.0 mph /  29 km/h 32.0 mph /  51.5 km/h 62 % 0.00 in /  0 mm 385 W/m2
17:12 54.3 °F /  12.4 °C 42.0 °F /  5.6 °C 29.93 in /  1013.4 hPa WNW 17.0 mph /  27.4 km/h 31.0 mph /  49.9 km/h 63 % 0.00 in /  0 mm 390 W/m2
17:17 54.3 °F /  12.4 °C 41.6 °F /  5.3 °C 29.93 in /  1013.4 hPa WNW 16.0 mph /  25.7 km/h 28.0 mph /  45.1 km/h 62 % 0.00 in /  0 mm 373 W/m2
17:22 54.1 °F /  12.3 °C 41.4 °F /  5.2 °C 29.93 in /  1013.4 hPa WNW 19.0 mph /  30.6 km/h 30.0 mph /  48.3 km/h 62 % 0.00 in /  0 mm 279 W/m2
17:27 54.0 °F /  12.2 °C 41.2 °F /  5.1 °C 29.93 in /  1013.4 hPa WNW 19.0 mph /  30.6 km/h 30.0 mph /  48.3 km/h 62 % 0.00 in /  0 mm 294 W/m2
17:32 53.8 °F /  12.1 °C 41.1 °F /  5.1 °C 29.94 in /  1013.8 hPa WNW 19.0 mph /  30.6 km/h 31.0 mph /  49.9 km/h 62 % 0.00 in /  0 mm 318 W/m2
17:38 53.8 °F /  12.1 °C 41.5 °F /  5.3 °C 29.94 in /  1013.8 hPa WNW 17.0 mph /  27.4 km/h 31.0 mph /  49.9 km/h 63 % 0.00 in /  0 mm 313 W/m2
17:43 53.8 °F /  12.1 °C 40.6 °F /  4.8 °C 29.94 in /  1013.8 hPa WNW 16.0 mph /  25.7 km/h 33.0 mph /  53.1 km/h 61 % 0.00 in /  0 mm 272 W/m2
17:48 53.4 °F /  11.9 °C 40.3 °F /  4.6 °C 29.94 in /  1013.8 hPa WNW 17.0 mph /  27.4 km/h 33.0 mph /  53.1 km/h 61 % 0.00 in /  0 mm 227 W/m2
17:53 53.2 °F /  11.8 °C 40.1 °F /  4.5 °C 29.95 in /  1014.1 hPa WNW 16.0 mph /  25.7 km/h 34.0 mph /  54.7 km/h 61 % 0.00 in /  0 mm 246 W/m2
17:58 53.2 °F /  11.8 °C 40.1 °F /  4.5 °C 29.94 in /  1013.8 hPa WNW 17.0 mph /  27.4 km/h 34.0 mph /  54.7 km/h 61 % 0.00 in /  0 mm 279 W/m2
18:03 53.2 °F /  11.8 °C 40.1 °F /  4.5 °C 29.94 in /  1013.8 hPa WNW 16.0 mph /  25.7 km/h 29.0 mph /  46.7 km/h 61 % 0.00 in /  0 mm 272 W/m2
18:08 53.4 °F /  11.9 °C 39.9 °F /  4.4 °C 29.94 in /  1013.8 hPa WNW 14.0 mph /  22.5 km/h 25.0 mph /  40.2 km/h 60 % 0.00 in /  0 mm 239 W/m2
18:13 53.2 °F /  11.8 °C 40.1 °F /  4.5 °C 29.94 in /  1013.8 hPa WNW 16.0 mph /  25.7 km/h 31.0 mph /  49.9 km/h 61 % 0.00 in /  0 mm 225 W/m2
18:18 53.1 °F /  11.7 °C 39.5 °F /  4.2 °C 29.95 in /  1014.1 hPa WNW 18.0 mph /  29 km/h 31.0 mph /  49.9 km/h 60 % 0.00 in /  0 mm 211 W/m2
18:23 53.1 °F /  11.7 °C 39.5 °F /  4.2 °C 29.95 in /  1014.1 hPa WNW 16.0 mph /  25.7 km/h 29.0 mph /  46.7 km/h 60 % 0.00 in /  0 mm 197 W/m2
18:28 53.1 °F /  11.7 °C 39.1 °F /  3.9 °C 29.95 in /  1014.1 hPa WNW 14.0 mph /  22.5 km/h 28.0 mph /  45.1 km/h 59 % 0.00 in /  0 mm 181 W/m2
18:33 53.1 °F /  11.7 °C 39.1 °F /  3.9 °C 29.95 in /  1014.1 hPa WNW 14.0 mph /  22.5 km/h 28.0 mph /  45.1 km/h 59 % 0.00 in /  0 mm 169 W/m2
18:38 53.1 °F /  11.7 °C 38.7 °F /  3.7 °C 29.95 in /  1014.1 hPa WNW 14.0 mph /  22.5 km/h 29.0 mph /  46.7 km/h 58 % 0.00 in /  0 mm 153 W/m2
18:43 52.9 °F /  11.6 °C 38.5 °F /  3.6 °C 29.95 in /  1014.1 hPa WNW 15.0 mph /  24.1 km/h 29.0 mph /  46.7 km/h 58 % 0.00 in /  0 mm 137 W/m2
18:48 52.5 °F /  11.4 °C 38.6 °F /  3.7 °C 29.95 in /  1014.1 hPa WNW 15.0 mph /  24.1 km/h 26.0 mph /  41.8 km/h 59 % 0.00 in /  0 mm 125 W/m2
18:53 52.5 °F /  11.4 °C 39.5 °F /  4.2 °C 29.95 in /  1014.1 hPa WNW 14.0 mph /  22.5 km/h 25.0 mph /  40.2 km/h 61 % 0.00 in /  0 mm 114 W/m2
18:58 52.2 °F /  11.2 °C 38.7 °F /  3.7 °C 29.95 in /  1014.1 hPa WNW 16.0 mph /  25.7 km/h 29.0 mph /  46.7 km/h 60 % 0.00 in /  0 mm 95 W/m2
19:03 51.6 °F /  10.9 °C 38.6 °F /  3.7 °C 29.95 in /  1014.1 hPa WNW 17.0 mph /  27.4 km/h 29.0 mph /  46.7 km/h 61 % 0.00 in /  0 mm 77 W/m2
19:08 51.3 °F /  10.7 °C 38.7 °F /  3.7 °C 29.96 in /  1014.4 hPa WNW 17.0 mph /  27.4 km/h 29.0 mph /  46.7 km/h 62 % 0.00 in /  0 mm 70 W/m2
19:13 50.7 °F /  10.4 °C 38.6 °F /  3.7 °C 29.96 in /  1014.4 hPa WNW 16.0 mph /  25.7 km/h 28.0 mph /  45.1 km/h 63 % 0.00 in /  0 mm 65 W/m2
19:14 50.7 °F /  10.4 °C 39.0 °F /  3.9 °C 29.96 in /  1014.4 hPa WNW 16.0 mph /  25.7 km/h 28.0 mph /  45.1 km/h 64 % 0.00 in /  0 mm 63 W/m2
19:19 50.5 °F /  10.3 °C 39.2 °F /  4 °C 29.96 in /  1014.4 hPa WNW 16.0 mph /  25.7 km/h 28.0 mph /  45.1 km/h 65 % 0.00 in /  0 mm 53 W/m2
19:24 50.2 °F /  10.1 °C 38.9 °F /  3.8 °C 29.97 in /  1014.8 hPa WNW 15.0 mph /  24.1 km/h 28.0 mph /  45.1 km/h 65 % 0.00 in /  0 mm 42 W/m2
19:29 50.2 °F /  10.1 °C 38.9 °F /  3.8 °C 29.97 in /  1014.8 hPa WNW 11.0 mph /  17.7 km/h 27.0 mph /  43.5 km/h 65 % 0.00 in /  0 mm 21 W/m2
19:34 49.8 °F /  9.9 °C 38.9 °F /  3.8 °C 29.97 in /  1014.8 hPa WNW 9.0 mph /  14.5 km/h 19.0 mph /  30.6 km/h 66 % 0.00 in /  0 mm 18 W/m2
19:40 49.6 °F /  9.8 °C 38.7 °F /  3.7 °C 29.97 in /  1014.8 hPa WNW 11.0 mph /  17.7 km/h 20.0 mph /  32.2 km/h 66 % 0.00 in /  0 mm 16 W/m2
19:45 49.5 °F /  9.7 °C 38.6 °F /  3.7 °C 29.97 in /  1014.8 hPa WNW 11.0 mph /  17.7 km/h 23.0 mph /  37 km/h 66 % 0.00 in /  0 mm 12 W/m2
19:50 49.3 °F /  9.6 °C 38.4 °F /  3.6 °C 29.97 in /  1014.8 hPa WNW 12.0 mph /  19.3 km/h 24.0 mph /  38.6 km/h 66 % 0.00 in /  0 mm 9 W/m2
19:55 49.1 °F /  9.5 °C 38.6 °F /  3.7 °C 29.97 in /  1014.8 hPa WNW 12.0 mph /  19.3 km/h 24.0 mph /  38.6 km/h 67 % 0.00 in /  0 mm 7 W/m2
20:00 48.9 °F /  9.4 °C 38.4 °F /  3.6 °C 29.97 in /  1014.8 hPa WNW 11.0 mph /  17.7 km/h 19.0 mph /  30.6 km/h 67 % 0.00 in /  0 mm 5 W/m2
20:05 48.7 °F /  9.3 °C 38.6 °F /  3.7 °C 29.98 in /  1015.1 hPa WNW 10.0 mph /  16.1 km/h 18.0 mph /  29 km/h 68 % 0.00 in /  0 mm 0 W/m2
20:07 48.6 °F /  9.2 °C 38.5 °F /  3.6 °C 29.98 in /  1015.1 hPa WNW 9.0 mph /  14.5 km/h 18.0 mph /  29 km/h 68 % 0.00 in /  0 mm 0 W/m2
20:12 48.6 °F /  9.2 °C 38.5 °F /  3.6 °C 29.98 in /  1015.1 hPa WNW 8.0 mph /  12.9 km/h 16.0 mph /  25.7 km/h 68 % 0.00 in /  0 mm 0 W/m2
20:17 48.4 °F /  9.1 °C 38.7 °F /  3.7 °C 29.98 in /  1015.1 hPa WNW 9.0 mph /  14.5 km/h 18.0 mph /  29 km/h 69 % 0.00 in /  0 mm 0 W/m2
20:22 48.2 °F /  9 °C 38.5 °F /  3.6 °C 29.98 in /  1015.1 hPa WNW 10.0 mph /  16.1 km/h 18.0 mph /  29 km/h 69 % 0.00 in /  0 mm 0 W/m2
20:27 48.0 °F /  8.9 °C 38.7 °F /  3.7 °C 29.98 in /  1015.1 hPa WNW 9.0 mph /  14.5 km/h 16.0 mph /  25.7 km/h 70 % 0.00 in /  0 mm 0 W/m2
20:32 47.8 °F /  8.8 °C 38.9 °F /  3.8 °C 29.99 in /  1015.5 hPa WNW 9.0 mph /  14.5 km/h 20.0 mph /  32.2 km/h 71 % 0.00 in /  0 mm 0 W/m2
20:37 47.7 °F /  8.7 °C 38.7 °F /  3.7 °C 29.99 in /  1015.5 hPa WNW 10.0 mph /  16.1 km/h 20.0 mph /  32.2 km/h 71 % 0.00 in /  0 mm 0 W/m2
20:42 47.5 °F /  8.6 °C 38.9 °F /  3.8 °C 29.99 in /  1015.5 hPa WNW 11.0 mph /  17.7 km/h 21.0 mph /  33.8 km/h 72 % 0.00 in /  0 mm 0 W/m2
20:47 47.5 °F /  8.6 °C 38.9 °F /  3.8 °C 29.99 in /  1015.5 hPa WNW 13.0 mph /  20.9 km/h 21.0 mph /  33.8 km/h 72 % 0.00 in /  0 mm 0 W/m2
20:52 47.5 °F /  8.6 °C 38.9 °F /  3.8 °C 29.99 in /  1015.5 hPa WNW 14.0 mph /  22.5 km/h 24.0 mph /  38.6 km/h 72 % 0.00 in /  0 mm 0 W/m2
20:57 47.5 °F /  8.6 °C 38.9 °F /  3.8 °C 29.99 in /  1015.5 hPa WNW 14.0 mph /  22.5 km/h 24.0 mph /  38.6 km/h 72 % 0.00 in /  0 mm 0 W/m2
21:02 47.5 °F /  8.6 °C 38.9 °F /  3.8 °C 29.99 in /  1015.5 hPa WNW 14.0 mph /  22.5 km/h 23.0 mph /  37 km/h 72 % 0.00 in /  0 mm 0 W/m2
21:07 47.3 °F /  8.5 °C 39.1 °F /  3.9 °C 29.99 in /  1015.5 hPa WNW 13.0 mph /  20.9 km/h 23.0 mph /  37 km/h 73 % 0.00 in /  0 mm 0 W/m2
21:12 47.1 °F /  8.4 °C 38.9 °F /  3.8 °C 29.99 in /  1015.5 hPa WNW 13.0 mph /  20.9 km/h 22.0 mph /  35.4 km/h 73 % 0.00 in /  0 mm 0 W/m2
21:17 47.1 °F /  8.4 °C 39.3 °F /  4.1 °C 29.99 in /  1015.5 hPa WNW 14.0 mph /  22.5 km/h 22.0 mph /  35.4 km/h 74 % 0.00 in /  0 mm 0 W/m2
21:22 46.9 °F /  8.3 °C 39.1 °F /  3.9 °C 29.99 in /  1015.5 hPa West 13.0 mph /  20.9 km/h 20.0 mph /  32.2 km/h 74 % 0.00 in /  0 mm 0 W/m2
21:27 46.9 °F /  8.3 °C 39.1 °F /  3.9 °C 29.99 in /  1015.5 hPa West 11.0 mph /  17.7 km/h 20.0 mph /  32.2 km/h 74 % 0.00 in /  0 mm 0 W/m2
21:32 46.8 °F /  8.2 °C 38.9 °F /  3.8 °C 29.99 in /  1015.5 hPa WNW 10.0 mph /  16.1 km/h 20.0 mph /  32.2 km/h 74 % 0.00 in /  0 mm 0 W/m2
21:38 46.8 °F /  8.2 °C 39.3 °F /  4.1 °C 29.99 in /  1015.5 hPa WNW 8.0 mph /  12.9 km/h 18.0 mph /  29 km/h 75 % 0.00 in /  0 mm 0 W/m2
21:43 46.6 °F /  8.1 °C 39.1 °F /  3.9 °C 29.99 in /  1015.5 hPa WNW 8.0 mph /  12.9 km/h 14.0 mph /  22.5 km/h 75 % 0.00 in /  0 mm 0 W/m2
21:48 46.6 °F /  8.1 °C 39.1 °F /  3.9 °C 29.99 in /  1015.5 hPa WNW 9.0 mph /  14.5 km/h 14.0 mph /  22.5 km/h 75 % 0.00 in /  0 mm 0 W/m2
21:53 46.6 °F /  8.1 °C 39.1 °F /  3.9 °C 29.99 in /  1015.5 hPa WNW 9.0 mph /  14.5 km/h 14.0 mph /  22.5 km/h 75 % 0.00 in /  0 mm 0 W/m2
21:58 46.2 °F /  7.9 °C 39.1 °F /  3.9 °C 29.99 in /  1015.5 hPa WNW 10.0 mph /  16.1 km/h 16.0 mph /  25.7 km/h 76 % 0.00 in /  0 mm 0 W/m2
22:03 46.2 °F /  7.9 °C 39.1 °F /  3.9 °C 29.99 in /  1015.5 hPa WNW 11.0 mph /  17.7 km/h 20.0 mph /  32.2 km/h 76 % 0.00 in /  0 mm 0 W/m2
22:08 46.2 °F /  7.9 °C 38.7 °F /  3.7 °C 29.99 in /  1015.5 hPa WNW 11.0 mph /  17.7 km/h 20.0 mph /  32.2 km/h 75 % 0.00 in /  0 mm 0 W/m2
22:13 46.2 °F /  7.9 °C 39.1 °F /  3.9 °C 29.99 in /  1015.5 hPa WNW 11.0 mph /  17.7 km/h 19.0 mph /  30.6 km/h 76 % 0.00 in /  0 mm 0 W/m2
22:18 46.2 °F /  7.9 °C 39.1 °F /  3.9 °C 29.99 in /  1015.5 hPa WNW 12.0 mph /  19.3 km/h 20.0 mph /  32.2 km/h 76 % 0.00 in /  0 mm 0 W/m2
22:23 46.0 °F /  7.8 °C 38.9 °F /  3.8 °C 30.00 in /  1015.8 hPa WNW 11.0 mph /  17.7 km/h 20.0 mph /  32.2 km/h 76 % 0.00 in /  0 mm 0 W/m2
22:28 46.0 °F /  7.8 °C 38.9 °F /  3.8 °C 29.99 in /  1015.5 hPa WNW 10.0 mph /  16.1 km/h 20.0 mph /  32.2 km/h 76 % 0.00 in /  0 mm 0 W/m2
22:33 46.0 °F /  7.8 °C 38.9 °F /  3.8 °C 30.00 in /  1015.8 hPa WNW 10.0 mph /  16.1 km/h 20.0 mph /  32.2 km/h 76 % 0.00 in /  0 mm 0 W/m2
22:38 45.9 °F /  7.7 °C 38.7 °F /  3.7 °C 30.00 in /  1015.8 hPa WNW 9.0 mph /  14.5 km/h 19.0 mph /  30.6 km/h 76 % 0.00 in /  0 mm 0 W/m2
22:43 45.7 °F /  7.6 °C 38.9 °F /  3.8 °C 30.00 in /  1015.8 hPa WNW 7.0 mph /  11.3 km/h 14.0 mph /  22.5 km/h 77 % 0.00 in /  0 mm 0 W/m2
22:48 45.5 °F /  7.5 °C 38.7 °F /  3.7 °C 30.00 in /  1015.8 hPa WNW 8.0 mph /  12.9 km/h 13.0 mph /  20.9 km/h 77 % 0.00 in /  0 mm 0 W/m2
22:53 45.3 °F /  7.4 °C 38.9 °F /  3.8 °C 30.00 in /  1015.8 hPa WNW 9.0 mph /  14.5 km/h 15.0 mph /  24.1 km/h 78 % 0.00 in /  0 mm 0 W/m2
22:58 45.3 °F /  7.4 °C 38.9 °F /  3.8 °C 30.00 in /  1015.8 hPa WNW 9.0 mph /  14.5 km/h 15.0 mph /  24.1 km/h 78 % 0.00 in /  0 mm 0 W/m2
23:03 45.1 °F /  7.3 °C 38.7 °F /  3.7 °C 30.00 in /  1015.8 hPa WNW 9.0 mph /  14.5 km/h 14.0 mph /  22.5 km/h 78 % 0.00 in /  0 mm 0 W/m2
23:08 45.1 °F /  7.3 °C 39.0 °F /  3.9 °C 30.00 in /  1015.8 hPa WNW 9.0 mph /  14.5 km/h 18.0 mph /  29 km/h 79 % 0.00 in /  0 mm 0 W/m2
23:13 45.0 °F /  7.2 °C 39.2 °F /  4 °C 30.00 in /  1015.8 hPa WNW 9.0 mph /  14.5 km/h 18.0 mph /  29 km/h 80 % 0.00 in /  0 mm 0 W/m2
23:18 45.0 °F /  7.2 °C 39.2 °F /  4 °C 30.00 in /  1015.8 hPa WNW 10.0 mph /  16.1 km/h 16.0 mph /  25.7 km/h 80 % 0.00 in /  0 mm 0 W/m2
23:23 44.8 °F /  7.1 °C 39.0 °F /  3.9 °C 30.00 in /  1015.8 hPa WNW 8.0 mph /  12.9 km/h 16.0 mph /  25.7 km/h 80 % 0.00 in /  0 mm 0 W/m2
23:28 44.8 °F /  7.1 °C 39.0 °F /  3.9 °C 30.00 in /  1015.8 hPa WNW 8.0 mph /  12.9 km/h 20.0 mph /  32.2 km/h 80 % 0.00 in /  0 mm 0 W/m2
23:33 44.8 °F /  7.1 °C 39.3 °F /  4.1 °C 30.00 in /  1015.8 hPa WNW 9.0 mph /  14.5 km/h 20.0 mph /  32.2 km/h 81 % 0.00 in /  0 mm 0 W/m2
23:38 44.8 °F /  7.1 °C 39.3 °F /  4.1 °C 30.00 in /  1015.8 hPa WNW 10.0 mph /  16.1 km/h 18.0 mph /  29 km/h 81 % 0.00 in /  0 mm 0 W/m2
23:43 44.8 °F /  7.1 °C 39.3 °F /  4.1 °C 30.00 in /  1015.8 hPa WNW 11.0 mph /  17.7 km/h 22.0 mph /  35.4 km/h 81 % 0.00 in /  0 mm 0 W/m2
23:48 44.8 °F /  7.1 °C 39.0 °F /  3.9 °C 30.00 in /  1015.8 hPa WNW 13.0 mph /  20.9 km/h 25.0 mph /  40.2 km/h 80 % 0.00 in /  0 mm 0 W/m2
23:49 44.8 °F /  7.1 °C 39.0 °F /  3.9 °C 30.00 in /  1015.8 hPa WNW 13.0 mph /  20.9 km/h 25.0 mph /  40.2 km/h 80 % 0.00 in /  0 mm 0 W/m2
23:54 44.8 °F /  7.1 °C 39.0 °F /  3.9 °C 30.00 in /  1015.8 hPa WNW 12.0 mph /  19.3 km/h 27.0 mph /  43.5 km/h 80 % 0.00 in /  0 mm 0 W/m2
23:59 44.8 °F /  7.1 °C 39.0 °F /  3.9 °C 30.00 in /  1015.8 hPa WNW 12.0 mph /  19.3 km/h 27.0 mph /  43.5 km/h 80 % 0.00 in /  0 mm 0 W/m2
Delerius-Weather
Compliments of Weather Underground - 2.25 mb

Data updates at regular intervals.